Time;durP1;ratioP1;P1;durP2;ratioP2;P2;SDS_P1;SDS_P2;PMS_P1;PMS_P2;Temp;Humidity;BMP_temperature;BMP_pressure;BME280_temperature;BME280_humidity;BME280_pressure;Samples;Min_cycle;Max_cycle;Signal;HPM_P1;HPM_P2
2022/11/03 00:02:26;;;;;;;6.57;1.52;;;;;;;5.65;100.00;101053.06;5221422;28;20028;-73
2022/11/03 00:06:03;;;;;;;8.80;1.65;;;;;;;5.73;100.00;101051.28;5220965;28;20438;-73
2022/11/03 00:07:47;;;;;;;9.00;1.85;;;;;;;5.66;100.00;101044.41;5218588;28;20031;-73
2022/11/03 00:10:17;;;;;;;6.55;1.73;;;;;;;5.66;100.00;101047.88;5219317;28;20538;-73
2022/11/03 00:12:47;;;;;;;9.25;1.80;;;;;;;5.66;100.00;101044.41;5219398;28;21590;-73
2022/11/03 00:15:18;;;;;;;7.93;2.03;;;;;;;5.74;100.00;101037.44;5220674;28;20114;-73
2022/11/03 00:17:48;;;;;;;11.52;1.80;;;;;;;5.78;100.00;101039.13;5220245;28;20036;-73
2022/11/03 00:20:18;;;;;;;8.35;2.05;;;;;;;5.92;100.00;101026.94;5221277;28;20479;-73
2022/11/03 00:22:48;;;;;;;8.07;1.65;;;;;;;5.83;100.00;101016.63;5221421;28;20017;-73
2022/11/03 00:25:19;;;;;;;13.40;2.28;;;;;;;5.72;100.00;101015.88;5221239;28;20161;-73
2022/11/03 00:27:54;;;;;;;13.63;2.30;;;;;;;5.58;100.00;101017.72;5220678;28;20052;-73
2022/11/03 00:30:24;;;;;;;;;;;;;;;5.64;100.00;101021.13;5217733;28;20211;-73
2022/11/03 00:32:55;;;;;;;7.07;1.90;;;;;;;5.69;100.00;101028.81;5221656;28;19913;-73
2022/11/03 00:35:25;;;;;;;9.27;2.15;;;;;;;5.66;100.00;101029.72;5221194;28;20124;-73
2022/11/03 00:37:55;;;;;;;10.15;2.20;;;;;;;5.58;100.00;101025.47;5220530;28;20028;-73
2022/11/03 00:40:25;;;;;;;9.15;1.92;;;;;;;5.59;100.00;101032.38;5220605;28;20025;-73
2022/11/03 00:42:56;;;;;;;10.65;2.25;;;;;;;5.62;100.00;101025.44;5219244;28;20558;-73
2022/11/03 00:45:26;;;;;;;8.45;1.75;;;;;;;5.69;100.00;101013.28;5220393;28;20032;-73
2022/11/03 00:50:45;;;;;;;6.53;1.60;;;;;;;5.86;100.00;101011.41;5220790;28;20433;-73
2022/11/03 00:53:15;;;;;;;7.47;1.80;;;;;;;5.84;100.00;101007.97;5220562;28;20033;-73
2022/11/03 00:55:49;;;;;;;8.63;2.10;;;;;;;5.94;100.00;101014.81;5220994;28;20483;-73
2022/11/03 00:58:19;;;;;;;6.07;1.75;;;;;;;6.14;100.00;100999.88;5220019;28;20031;-73
2022/11/03 01:00:50;;;;;;;6.75;1.80;;;;;;;6.10;100.00;101006.84;5220955;28;20107;-73
2022/11/03 01:03:20;;;;;;;7.03;1.85;;;;;;;6.18;100.00;101001.56;5220932;28;20481;-73
2022/11/03 01:08:39;;;;;;;5.72;1.75;;;;;;;6.17;100.00;101007.63;5220109;28;20147;-73
2022/11/03 01:14:02;;;;;;;8.38;1.60;;;;;;;5.95;100.00;100998.38;5217673;28;20108;-73
2022/11/03 01:16:32;;;;;;;9.30;1.98;;;;;;;5.82;100.00;101000.22;5220239;28;20108;-73
2022/11/03 01:19:04;;;;;;;8.35;1.50;;;;;;;5.92;100.00;101007.03;5222783;28;20506;-73
2022/11/03 01:21:35;;;;;;;7.10;1.60;;;;;;;5.83;100.00;101012.31;5224438;28;20099;-73
2022/11/03 01:24:05;;;;;;;9.35;1.77;;;;;;;5.82;100.00;101001.94;5224100;28;20113;-73
2022/11/03 01:26:35;;;;;;;7.32;1.83;;;;;;;5.87;100.00;101002.75;5220348;28;20501;-73
2022/11/03 01:29:06;;;;;;;5.45;1.60;;;;;;;5.85;100.00;101000.19;5224622;28;20056;-73
2022/11/03 01:31:36;;;;;;;5.95;1.80;;;;;;;5.80;100.00;100991.63;5224261;28;20106;-73
2022/11/03 01:34:31;;;;;;;8.45;1.60;;;;;;;5.85;100.00;100989.81;5224171;28;20061;-73
2022/11/03 01:37:02;;;;;;;6.97;1.45;;;;;;;5.92;100.00;100985.44;5212941;28;20025;-73
2022/11/03 01:39:32;;;;;;;9.13;1.67;;;;;;;6.01;100.00;100981.00;5223260;28;20398;-73
2022/11/03 01:42:03;;;;;;;9.27;1.67;;;;;;;5.99;100.00;100981.88;5224014;28;20040;-73
2022/11/03 01:44:36;;;;;;;9.95;1.77;;;;;;;6.00;100.00;100971.50;5222303;28;20033;-73
2022/11/03 01:47:27;;;;;;;7.43;1.38;;;;;;;6.13;100.00;100974.81;5222925;28;20044;-73
2022/11/03 01:50:14;;;;;;;11.25;1.70;;;;;;;6.09;100.00;100973.16;5219520;28;20017;-73
2022/11/03 01:52:50;;;;;;;11.00;1.55;;;;;;;6.28;100.00;100964.28;5223607;28;20052;-74
2022/11/03 01:55:27;;;;;;;6.30;1.52;;;;;;;6.27;100.00;100960.78;5223412;28;20101;-73
2022/11/03 01:58:18;;;;;;;7.53;1.55;;;;;;;6.23;100.00;100940.97;5218411;28;20550;-74
2022/11/03 02:00:53;;;;;;;5.63;1.50;;;;;;;6.54;100.00;100951.81;5222647;28;20487;-72
2022/11/03 02:03:25;;;;;;;11.02;1.60;;;;;;;6.49;100.00;100943.22;5219622;28;20112;-73
2022/11/03 02:05:56;;;;;;;10.02;1.80;;;;;;;6.28;100.00;100939.16;5223673;28;20033;-73
2022/11/03 02:08:35;;;;;;;8.20;1.65;;;;;;;6.41;100.00;100937.28;5222523;28;20095;-73
2022/11/03 02:13:55;;;;;;;7.88;2.03;;;;;;;6.57;100.00;100916.28;5218553;28;20564;-73
2022/11/03 02:16:27;;;;;;;9.20;1.60;;;;;;;6.65;100.00;100918.78;5223054;28;20033;-72
2022/11/03 02:19:00;;;;;;;10.40;1.50;;;;;;;6.57;100.00;100910.25;5223250;28;20025;-73
2022/11/03 02:21:47;;;;;;;9.95;1.65;;;;;;;6.55;100.00;100912.84;5221743;28;20591;-73
2022/11/03 02:24:26;;;;;;;7.85;1.75;;;;;;;6.56;100.00;100913.72;5223422;28;20218;-73
2022/11/03 02:26:56;;;;;;;7.40;1.90;;;;;;;6.55;100.00;100899.88;5217996;28;20064;-73
2022/11/03 02:29:27;;;;;;;6.63;1.55;;;;;;;6.64;100.00;100901.47;5222150;28;20499;-73
2022/11/03 02:32:04;;;;;;;9.05;1.50;;;;;;;6.65;100.00;100893.69;5223115;28;20082;-73
2022/11/03 02:34:46;;;;;;;11.50;1.67;;;;;;;6.49;100.00;100888.72;5222748;28;20510;-73
2022/11/03 02:37:21;;;;;;;8.82;1.73;;;;;;;6.57;100.00;100889.47;5221458;28;20032;-73
2022/11/03 02:39:57;;;;;;;10.35;1.70;;;;;;;6.54;100.00;100881.69;5222689;28;20257;-73
2022/11/03 02:42:29;;;;;;;8.18;1.50;;;;;;;6.42;100.00;100880.16;5219412;28;20028;-73
2022/11/03 02:45:02;;;;;;;8.88;1.63;;;;;;;6.43;100.00;100878.41;5222219;28;20028;-73
2022/11/03 02:47:35;;;;;;;9.90;1.90;;;;;;;6.54;100.00;100877.38;5222259;28;20471;-73
2022/11/03 02:50:09;;;;;;;10.95;1.98;;;;;;;6.55;100.00;100886.88;5222236;28;20078;-73
2022/11/03 02:52:42;;;;;;;6.50;1.52;;;;;;;6.61;100.00;100881.59;5222551;28;20031;-73
2022/11/03 02:55:28;;;;;;;9.88;1.65;;;;;;;6.60;100.00;100877.28;5221230;28;20036;-74
2022/11/03 02:58:16;;;;;;;7.53;1.88;;;;;;;6.68;100.00;100877.16;5217378;28;20024;-73
2022/11/03 03:01:05;;;;;;;5.10;1.42;;;;;;;6.70;100.00;100880.59;5222332;28;20433;-73
2022/11/03 03:03:39;;;;;;;8.25;1.65;;;;;;;6.66;100.00;100874.63;5220305;28;20118;-73
2022/11/03 03:06:14;;;;;;;10.60;1.58;;;;;;;6.59;100.00;100883.34;5288058;22;20208;-76
2022/11/03 03:08:49;;;;;;;8.07;1.77;;;;;;;6.72;100.00;100879.72;5217326;28;20486;-74
2022/11/03 03:11:35;;;;;;;7.68;1.80;;;;;;;6.75;100.00;100876.22;5221636;28;20040;-76
2022/11/03 03:14:14;;;;;;;6.65;1.77;;;;;;;6.64;100.00;100885.91;5219963;28;20116;-76
2022/11/03 03:16:49;;;;;;;7.00;1.60;;;;;;;6.67;100.00;100878.06;5213498;28;20052;-76
2022/11/03 03:19:28;;;;;;;5.60;1.10;;;;;;;6.75;100.00;100869.25;5209933;28;20507;-77
2022/11/03 03:22:02;;;;;;;11.60;1.73;;;;;;;6.80;100.00;100867.44;5207299;28;20702;-76
2022/11/03 03:24:47;;;;;;;8.57;2.10;;;;;;;6.74;100.00;100864.94;5211977;28;20268;-76
2022/11/03 03:27:21;;;;;;;9.13;1.60;;;;;;;6.75;100.00;100848.47;5207426;28;20486;-76
2022/11/03 03:30:01;;;;;;;8.07;1.33;;;;;;;6.73;100.00;100845.06;5209469;28;20091;-76
2022/11/03 03:32:42;;;;;;;10.50;1.60;;;;;;;6.71;100.00;100849.44;5204515;28;20052;-76
2022/11/03 03:35:19;;;;;;;11.65;1.80;;;;;;;6.62;100.00;100848.72;5200803;28;20120;-76
2022/11/03 03:37:52;;;;;;;9.75;1.60;;;;;;;6.70;100.00;100844.25;5207624;28;20049;-76
2022/11/03 03:40:30;;;;;;;7.13;1.60;;;;;;;6.79;100.00;100846.72;5202426;28;20064;-76
2022/11/03 03:43:05;;;;;;;12.10;1.50;;;;;;;6.83;100.00;100840.56;5212121;28;20024;-76
2022/11/03 03:45:37;;;;;;;7.90;1.40;;;;;;;6.93;100.00;100836.97;5210621;28;20033;-76
2022/11/03 03:48:07;;;;;;;10.82;1.80;;;;;;;7.06;100.00;100833.25;5210251;28;20021;-76
2022/11/03 03:50:40;;;;;;;16.08;1.73;;;;;;;7.16;100.00;100820.09;5210877;28;20033;-76
2022/11/03 03:53:12;;;;;;;9.50;1.77;;;;;;;7.32;100.00;100818.94;5210864;28;20029;-76
2022/11/03 03:55:45;;;;;;;8.00;1.55;;;;;;;7.42;100.00;100818.72;5210778;28;20017;-76
2022/11/03 03:58:16;;;;;;;6.50;1.40;;;;;;;7.47;100.00;100816.88;5209221;28;20053;-76
2022/11/03 04:00:46;;;;;;;13.80;1.52;;;;;;;7.59;100.00;100820.97;5212359;28;20052;-76
2022/11/03 04:03:21;;;;;;;11.02;1.70;;;;;;;7.51;100.00;100817.69;5204376;28;20052;-76
2022/11/03 04:05:52;;;;;;;10.27;1.80;;;;;;;7.58;100.00;100809.75;5200908;28;20414;-76
2022/11/03 04:08:23;;;;;;;9.02;1.60;;;;;;;7.56;100.00;100808.88;5199026;28;20029;-76
2022/11/03 04:22:15;;;;;;;11.63;1.77;;;;;;;7.73;100.00;100792.97;5209135;28;20423;-76
2022/11/03 04:24:47;;;;;;;10.63;1.73;;;;;;;7.66;100.00;100787.03;5209366;28;20033;-75
2022/11/03 04:27:27;;;;;;;9.05;1.73;;;;;;;7.74;100.00;100784.25;5203298;28;20029;-76
2022/11/03 04:30:18;;;;;;;10.65;1.55;;;;;;;7.76;100.00;100779.88;5203498;28;20032;-77
2022/11/03 04:32:50;;;;;;;10.35;1.98;;;;;;;7.89;100.00;100776.13;5212573;28;20399;-76
2022/11/03 04:35:26;;;;;;;8.60;1.73;;;;;;;7.91;100.00;100777.78;5208969;28;20029;-76
2022/11/03 04:38:03;;;;;;;7.72;1.42;;;;;;;7.95;100.00;100773.41;5204770;28;20456;-77
2022/11/03 04:40:34;;;;;;;9.18;1.95;;;;;;;7.89;100.00;100768.34;5205879;28;20061;-76
2022/11/03 04:43:10;;;;;;;10.68;1.42;;;;;;;7.83;100.00;100758.91;5203641;28;20060;-76
2022/11/03 04:45:45;;;;;;;9.40;1.42;;;;;;;7.88;100.00;100761.41;5210225;28;20100;-76
2022/11/03 04:48:23;;;;;;;12.02;1.77;;;;;;;7.85;100.00;100751.91;5211178;28;20475;-76
2022/11/03 04:50:57;;;;;;;11.38;1.80;;;;;;;7.81;100.00;100752.88;5204400;28;20033;-76
2022/11/03 04:53:31;;;;;;;8.50;1.70;;;;;;;7.90;100.00;100744.88;5213008;28;20021;-76
2022/11/03 04:56:13;;;;;;;7.87;1.67;;;;;;;7.86;100.00;100735.41;5210201;28;20029;-76
2022/11/03 04:58:44;;;;;;;9.77;1.70;;;;;;;7.88;100.00;100738.84;5209724;28;20021;-76
2022/11/03 05:01:18;;;;;;;8.38;1.58;;;;;;;7.87;100.00;100739.72;5215771;28;20406;-76
2022/11/03 05:03:51;;;;;;;10.00;1.52;;;;;;;7.82;100.00;100741.59;5212393;28;20033;-76
2022/11/03 05:06:25;;;;;;;8.38;1.60;;;;;;;7.86;100.00;100735.41;5210484;28;20029;-74
2022/11/03 05:09:03;;;;;;;10.23;2.10;;;;;;;7.89;100.00;100735.34;5206195;28;20030;-76
2022/11/03 05:11:38;;;;;;;9.05;1.23;;;;;;;7.78;100.00;100733.88;5214646;28;20056;-76
2022/11/03 05:14:23;;;;;;;10.02;1.60;;;;;;;7.75;100.00;100724.41;5214094;28;20454;-76
2022/11/03 05:16:54;;;;;;;10.45;1.67;;;;;;;7.75;100.00;100721.81;5207827;28;20029;-76
2022/11/03 05:19:30;;;;;;;11.40;1.80;;;;;;;7.77;100.00;100720.03;5207139;28;20383;-76
2022/11/03 05:22:03;;;;;;;8.43;1.60;;;;;;;7.66;100.00;100721.16;5208185;28;20478;-76
2022/11/03 05:24:34;;;;;;;8.63;1.50;;;;;;;7.77;100.00;100713.97;5212924;28;20029;-77
2022/11/03 05:27:10;;;;;;;11.43;1.63;;;;;;;7.82;100.00;100707.78;5214572;28;20390;-76
2022/11/03 05:29:41;;;;;;;7.15;1.38;;;;;;;7.77;100.00;100717.44;5208541;28;20029;-76
2022/11/03 05:32:18;;;;;;;10.18;1.55;;;;;;;7.79;100.00;100714.78;5210497;28;20080;-76
2022/11/03 05:34:50;;;;;;;13.65;1.90;;;;;;;7.74;100.00;100707.06;5211912;28;20452;-76
2022/11/03 05:37:31;;;;;;;11.77;2.08;;;;;;;7.65;100.00;100707.28;5210210;28;20417;-76
2022/11/03 05:40:23;;;;;;;8.25;1.48;;;;;;;7.74;100.00;100696.66;5211837;28;20224;-76
2022/11/03 05:42:59;;;;;;;10.18;1.60;;;;;;;7.75;100.00;100703.59;5207402;28;20395;-77
2022/11/03 05:45:32;;;;;;;11.02;2.00;;;;;;;7.72;100.00;100703.66;5214151;28;20040;-76
2022/11/03 05:48:14;;;;;;;9.43;1.58;;;;;;;7.71;100.00;100703.69;5210861;28;20339;-76
2022/11/03 05:50:45;;;;;;;8.63;1.40;;;;;;;7.70;100.00;100696.78;5206750;28;20511;-76
2022/11/03 05:53:29;;;;;;;6.45;1.40;;;;;;;7.86;100.00;100696.41;5209995;28;20053;-76
2022/11/03 05:56:03;;;;;;;9.68;1.63;;;;;;;7.87;100.00;100692.91;5209533;28;20443;-76
2022/11/03 05:58:38;;;;;;;9.50;1.73;;;;;;;7.86;100.00;100696.41;5211993;28;20025;-76
2022/11/03 06:01:17;;;;;;;12.07;2.08;;;;;;;7.86;100.00;100691.19;5213548;28;20470;-76
2022/11/03 06:03:48;;;;;;;12.98;2.00;;;;;;;7.85;100.00;100686.88;5211907;28;20045;-76
2022/11/03 06:06:32;;;;;;;9.48;1.45;;;;;;;7.85;100.00;100692.09;5210440;28;20024;-76
2022/11/03 06:09:14;;;;;;;8.65;1.42;;;;;;;7.88;100.00;100692.00;5209520;28;20527;-77
2022/11/03 06:11:44;;;;;;;8.43;1.35;;;;;;;7.91;100.00;100693.69;5212298;28;20025;-76
2022/11/03 06:14:20;;;;;;;8.75;2.10;;;;;;;7.99;100.00;100692.63;5214358;28;20035;-76
2022/11/03 06:17:00;;;;;;;12.52;1.77;;;;;;;8.07;100.00;100688.09;5210866;28;20497;-76
2022/11/03 06:19:38;;;;;;;7.85;1.58;;;;;;;8.01;100.00;100687.41;5208785;28;20434;-76
2022/11/03 06:22:27;;;;;;;12.13;1.83;;;;;;;8.10;100.00;100688.03;5204546;28;20049;-75
2022/11/03 06:25:18;;;;;;;10.60;1.73;;;;;;;8.14;100.00;100684.47;5199528;28;20155;-76
2022/11/03 06:27:50;;;;;;;8.38;1.40;;;;;;;8.18;100.00;100693.09;5208173;28;20021;-76
2022/11/03 06:30:25;;;;;;;7.90;1.25;;;;;;;8.28;100.00;100698.03;5214232;28;20521;-76
2022/11/03 06:32:59;;;;;;;8.25;1.42;;;;;;;8.32;100.00;100691.84;5207435;28;20250;-77
2022/11/03 06:35:29;;;;;;;9.57;1.60;;;;;;;8.37;100.00;100682.16;5213482;28;20510;-76
2022/11/03 06:38:00;;;;;;;11.45;1.60;;;;;;;8.45;100.00;100698.47;5206422;28;20022;-76
2022/11/03 06:40:35;;;;;;;8.40;1.90;;;;;;;8.47;100.00;100694.09;5212021;28;20562;-77
2022/11/03 06:43:30;;;;;;;12.40;1.90;;;;;;;8.46;100.00;100694.97;5209822;28;20331;-76
2022/11/03 06:46:04;;;;;;;8.35;1.50;;;;;;;8.47;100.00;100699.28;5207215;28;20168;-76
2022/11/03 06:48:35;;;;;;;6.47;1.57;;;;;;;8.54;100.00;100686.97;5210539;28;20035;-76
2022/11/03 06:51:29;;;;;;;7.28;1.50;;;;;;;8.57;100.00;100690.34;5210511;28;20029;-76
2022/11/03 06:54:00;;;;;;;9.32;1.67;;;;;;;8.61;100.00;100694.59;5193205;28;20410;-76
2022/11/03 06:56:35;;;;;;;11.00;1.50;;;;;;;8.75;100.00;100681.19;5203717;28;20041;-76
2022/11/03 06:59:09;;;;;;;10.73;1.80;;;;;;;8.78;100.00;100683.72;5203119;28;20502;-76
2022/11/03 07:01:40;;;;;;;8.00;1.58;;;;;;;8.91;100.00;100683.34;5200586;28;20041;-76
2022/11/03 07:04:18;;;;;;;11.25;1.90;;;;;;;8.98;100.00;100684.91;5189546;28;20036;-76
2022/11/03 07:06:48;;;;;;;8.52;1.70;;;;;;;9.01;100.00;100682.22;5192358;28;20060;-76
2022/11/03 07:09:21;;;;;;;13.65;1.77;;;;;;;9.05;100.00;100682.97;5193605;28;20057;-76
2022/11/03 07:11:55;;;;;;;7.35;1.58;;;;;;;9.08;100.00;100686.34;5203110;28;20017;-76
2022/11/03 07:14:27;;;;;;;10.20;1.95;;;;;;;9.28;100.00;100676.22;5193990;28;20405;-76
2022/11/03 07:17:03;;;;;;;9.30;1.50;;;;;;;9.17;100.00;100678.28;5199603;28;20032;-77
2022/11/03 07:19:35;;;;;;;7.35;1.70;;;;;;;9.30;100.00;100671.81;5192346;28;20022;-74
2022/11/03 07:22:26;;;;;;;11.73;2.03;;;;;;;9.31;100.00;100668.31;5204817;28;20071;-76
2022/11/03 07:25:02;;;;;;;6.20;1.52;;;;;;;9.42;100.00;100663.63;5201778;28;20034;-76
2022/11/03 07:27:36;;;;;;;11.20;2.15;;;;;;;9.50;100.00;100661.66;5205151;28;20032;-76
2022/11/03 07:30:18;;;;;;;8.40;1.70;;;;;;;9.53;100.00;100654.59;5207543;28;20037;-76
2022/11/03 07:32:52;;;;;;;7.25;1.77;;;;;;;9.43;100.00;100647.06;5205921;28;20052;-76
2022/11/03 07:35:34;;;;;;;8.52;1.50;;;;;;;9.58;100.00;100646.59;5209672;28;20025;-76
2022/11/03 07:38:13;;;;;;;9.65;1.45;;;;;;;9.67;100.00;100641.97;5207830;28;20116;-76
2022/11/03 07:40:43;;;;;;;8.98;1.70;;;;;;;9.76;100.00;100638.22;5208842;28;20525;-76
2022/11/03 07:43:17;;;;;;;8.43;1.40;;;;;;;9.87;100.00;100633.53;5212402;28;20029;-76
2022/11/03 07:45:51;;;;;;;8.75;1.90;;;;;;;9.92;100.00;100632.47;5210101;28;20025;-76
2022/11/03 07:48:24;;;;;;;8.65;1.65;;;;;;;9.90;100.00;100626.47;5212280;28;20028;-76
2022/11/03 07:51:00;;;;;;;9.18;1.65;;;;;;;9.98;100.00;100618.38;5205423;28;20025;-76
2022/11/03 07:53:38;;;;;;;9.50;1.90;;;;;;;10.11;100.00;100606.63;5211821;28;20024;-76
2022/11/03 07:56:41;;;;;;;8.98;1.42;;;;;;;10.13;100.00;100603.09;5211177;28;20036;-77
2022/11/03 07:59:21;;;;;;;6.95;1.67;;;;;;;10.18;100.00;100601.16;5209558;28;20415;-76
2022/11/03 08:01:58;;;;;;;7.28;1.33;;;;;;;10.23;100.00;100595.78;5205040;28;20067;-76
2022/11/03 08:04:33;;;;;;;7.43;1.70;;;;;;;10.35;100.00;100590.16;5201840;28;20671;-76
2022/11/03 08:07:03;;;;;;;9.98;1.70;;;;;;;10.49;100.00;100582.69;5202617;28;20037;-76
2022/11/03 08:09:33;;;;;;;9.40;1.73;;;;;;;10.67;100.00;100579.44;5203254;28;20372;-76
2022/11/03 08:12:04;;;;;;;7.20;1.75;;;;;;;10.74;99.23;100567.84;5207048;28;20037;-76
2022/11/03 08:14:36;;;;;;;12.10;1.88;;;;;;;10.74;99.18;100573.94;5205793;28;20091;-77
2022/11/03 08:17:06;;;;;;;8.05;1.95;;;;;;;10.92;100.00;100572.41;5204400;28;20025;-76
2022/11/03 08:19:37;;;;;;;10.52;1.98;;;;;;;10.95;98.41;100567.03;5207583;28;20406;-77
2022/11/03 08:22:07;;;;;;;9.40;1.60;;;;;;;10.91;99.85;100570.69;5206555;28;20036;-76
2022/11/03 08:24:38;;;;;;;10.40;1.67;;;;;;;10.78;100.00;100565.06;5207180;28;20033;-76
2022/11/03 08:27:08;;;;;;;5.90;1.40;;;;;;;10.69;100.00;100554.09;5206002;28;20029;-76
2022/11/03 08:29:38;;;;;;;9.20;1.60;;;;;;;10.83;100.00;100551.84;5213351;28;20021;-76
2022/11/03 08:32:08;;;;;;;5.63;1.15;;;;;;;10.92;100.00;100546.25;5215464;28;20060;-77
2022/11/03 08:34:39;;;;;;;9.27;1.77;;;;;;;10.96;99.80;100542.59;5215429;28;20029;-76
2022/11/03 08:37:09;;;;;;;9.93;2.00;;;;;;;10.91;100.00;100537.56;5209702;28;20079;-76
2022/11/03 08:39:39;;;;;;;8.55;1.80;;;;;;;10.98;100.00;100546.00;5204901;28;20398;-76
2022/11/03 08:42:09;;;;;;;8.95;1.75;;;;;;;10.91;100.00;100540.19;5205027;28;20047;-76
2022/11/03 08:44:40;;;;;;;10.73;2.00;;;;;;;10.99;100.00;100540.72;5215670;28;20029;-76
2022/11/03 08:47:10;;;;;;;12.32;1.60;;;;;;;10.99;100.00;100532.88;5213779;28;20037;-75
2022/11/03 08:49:40;;;;;;;9.18;1.70;;;;;;;11.05;100.00;100524.78;5215253;28;20034;-76
2022/11/03 08:52:11;;;;;;;6.95;1.63;;;;;;;11.07;100.00;100529.06;5214320;28;20040;-76
2022/11/03 08:54:41;;;;;;;5.20;1.50;;;;;;;11.16;100.00;100523.50;5214864;28;20956;-77
2022/11/03 08:57:12;;;;;;;11.68;1.92;;;;;;;11.14;100.00;100527.91;5213634;28;20103;-76
2022/11/03 08:59:42;;;;;;;7.90;1.88;;;;;;;11.29;100.00;100519.47;5214696;28;20036;-76
2022/11/03 09:02:12;;;;;;;8.43;1.60;;;;;;;11.43;100.00;100511.94;5213683;28;20029;-76
2022/11/03 09:04:42;;;;;;;11.70;1.60;;;;;;;11.55;100.00;100503.59;5213758;28;20040;-76
2022/11/03 09:07:13;;;;;;;11.13;1.80;;;;;;;11.60;99.58;100500.84;5212059;28;20032;-75
2022/11/03 09:09:43;;;;;;;9.13;1.95;;;;;;;11.67;100.00;100503.13;5206692;28;20042;-76
2022/11/03 09:12:13;;;;;;;9.10;1.65;;;;;;;11.87;98.81;100505.78;5204240;28;20107;-75
2022/11/03 09:14:43;;;;;;;7.97;1.90;;;;;;;12.05;99.45;100494.53;5206886;28;20419;-76
2022/11/03 09:17:14;;;;;;;10.10;1.60;;;;;;;12.21;98.52;100487.69;5214094;28;20332;-76
2022/11/03 09:19:44;;;;;;;7.35;1.90;;;;;;;12.32;95.76;100477.56;5209423;28;20033;-77
2022/11/03 09:22:14;;;;;;;5.38;1.33;;;;;;;12.37;96.01;100480.00;5214929;28;20154;-76
2022/11/03 09:24:45;;;;;;;6.55;1.50;;;;;;;12.41;94.77;100474.56;5212800;28;20064;-76
2022/11/03 09:27:15;;;;;;;10.15;1.50;;;;;;;12.60;95.60;100478.06;5212867;28;20036;-76
2022/11/03 09:29:45;;;;;;;7.80;1.52;;;;;;;12.78;95.14;100465.91;5212925;28;20074;-76
2022/11/03 09:32:15;;;;;;;8.25;1.50;;;;;;;12.93;93.72;100476.56;5214830;28;20029;-76
2022/11/03 09:34:46;;;;;;;5.90;1.50;;;;;;;12.96;93.89;100470.31;5212226;28;20117;-76
2022/11/03 09:37:16;;;;;;;7.75;1.88;;;;;;;12.90;92.89;100463.56;5209873;28;20025;-76
2022/11/03 09:39:46;;;;;;;9.75;1.80;;;;;;;12.82;92.96;100462.19;5208322;28;20059;-76
2022/11/03 09:42:17;;;;;;;9.27;2.00;;;;;;;12.90;93.85;100461.75;5211907;28;20116;-76
2022/11/03 09:44:49;;;;;;;7.93;1.52;;;;;;;12.96;94.81;100465.91;5207536;28;20031;-77
2022/11/03 09:47:28;;;;;;;7.95;1.75;;;;;;;13.02;94.69;100461.22;5203014;28;20109;-74
2022/11/03 09:49:59;;;;;;;8.93;1.45;;;;;;;13.14;94.23;100452.78;5208461;28;20036;-76
2022/11/03 09:52:30;;;;;;;16.25;1.90;;;;;;;13.08;94.55;100450.44;5214703;28;20032;-76
2022/11/03 09:55:00;;;;;;;8.30;1.50;;;;;;;13.15;93.86;100451.84;5211936;28;20041;-76
2022/11/03 09:57:30;;;;;;;10.48;1.60;;;;;;;13.40;93.67;100462.03;5211812;28;20025;-72
2022/11/03 10:00:03;;;;;;;7.10;1.67;;;;;;;13.33;94.10;100456.22;5212453;28;20034;-77
2022/11/03 10:02:35;;;;;;;8.40;1.73;;;;;;;13.26;93.69;100453.97;5212557;28;20638;-77
2022/11/03 10:05:11;;;;;;;5.53;1.60;;;;;;;13.42;94.10;100458.38;5212605;28;20108;-76
2022/11/03 10:07:44;;;;;;;8.68;1.90;;;;;;;13.31;94.00;100454.56;5206933;28;20030;-76
2022/11/03 10:10:17;;;;;;;6.47;1.52;;;;;;;13.62;92.73;100446.91;5212317;28;20147;-76
2022/11/03 10:12:48;;;;;;;6.47;1.60;;;;;;;13.76;92.53;100442.63;5211612;28;20032;-77
2022/11/03 10:15:22;;;;;;;9.50;1.85;;;;;;;13.94;92.13;100443.50;5206727;28;20387;-76
2022/11/03 10:17:53;;;;;;;5.43;1.60;;;;;;;13.98;91.21;100430.13;5203082;28;20045;-77
2022/11/03 10:20:23;;;;;;;7.65;1.70;;;;;;;14.03;90.83;100424.63;5200822;28;20038;-76
2022/11/03 10:22:54;;;;;;;9.75;1.85;;;;;;;14.05;91.66;100422.78;5213465;28;20035;-77
2022/11/03 10:25:29;;;;;;;7.60;1.73;;;;;;;14.20;90.31;100414.09;5210957;28;20032;-76
2022/11/03 10:28:22;;;;;;;7.82;1.58;;;;;;;14.03;89.11;100421.97;5208241;28;20450;-77
2022/11/03 10:30:55;;;;;;;7.22;1.73;;;;;;;14.05;89.70;100415.72;5209139;28;20112;-77
2022/11/03 10:33:37;;;;;;;8.35;1.88;;;;;;;14.06;90.06;100411.34;5207189;28;20666;-77
2022/11/03 10:36:13;;;;;;;8.40;1.98;;;;;;;14.10;90.14;100407.63;5211674;28;20045;-76
2022/11/03 10:38:45;;;;;;;7.72;1.58;;;;;;;13.92;89.95;100405.94;5205097;28;20021;-77
2022/11/03 10:41:26;;;;;;;9.27;1.85;;;;;;;13.93;89.32;100394.50;5211715;28;20454;-76
2022/11/03 10:44:11;;;;;;;6.45;1.90;;;;;;;13.94;89.92;100393.56;5207354;28;20025;-76
2022/11/03 10:46:58;;;;;;;7.83;1.80;;;;;;;13.88;90.96;100391.28;5210702;28;20072;-76
2022/11/03 10:49:31;;;;;;;7.75;1.73;;;;;;;13.97;90.97;100375.03;5202227;28;21148;-76
2022/11/03 10:52:24;;;;;;;6.70;1.98;;;;;;;13.92;90.38;100372.63;5212760;28;20033;-77
2022/11/03 10:54:58;;;;;;;9.75;1.85;;;;;;;13.98;91.31;100353.06;5206541;28;20033;-77
2022/11/03 10:57:28;;;;;;;7.05;1.80;;;;;;;13.94;90.09;100348.91;5211835;28;20144;-76
2022/11/03 10:59:59;;;;;;;10.60;1.85;;;;;;;14.09;89.95;100345.47;5210087;28;20346;-77
2022/11/03 11:02:31;;;;;;;7.25;1.85;;;;;;;14.26;89.06;100346.28;5212703;28;20116;-77
2022/11/03 11:05:12;;;;;;;4.68;1.42;;;;;;;14.31;90.29;100354.78;5210426;28;20129;-76
2022/11/03 11:07:44;;;;;;;7.47;1.50;;;;;;;14.63;89.70;100353.00;5205864;28;20024;-77
2022/11/03 11:10:18;;;;;;;9.82;1.80;;;;;;;14.67;89.09;100347.50;5210913;28;20017;-75
2022/11/03 11:13:05;;;;;;;9.77;1.50;;;;;;;14.62;86.99;100336.38;5210281;28;20028;-77
2022/11/03 11:16:02;;;;;;;8.15;1.80;;;;;;;14.62;88.00;100333.75;5208370;28;20033;-76
2022/11/03 11:18:33;;;;;;;9.27;1.50;;;;;;;14.63;88.25;100332.81;5204041;28;20444;-76
2022/11/03 11:21:16;;;;;;;7.47;1.65;;;;;;;14.50;88.37;100326.56;5210243;28;20079;-76
2022/11/03 11:23:48;;;;;;;6.28;1.92;;;;;;;14.37;87.72;100322.91;5208004;28;20350;-76
2022/11/03 11:26:46;;;;;;;10.48;2.00;;;;;;;14.28;87.96;100309.41;5206927;28;20154;-76
2022/11/03 11:29:33;;;;;;;8.90;1.75;;;;;;;14.18;91.11;100305.56;5209663;28;20091;-77
2022/11/03 11:32:53;;;;;;;8.25;1.80;;;;;;;14.18;90.15;100308.19;5206622;28;20029;-77
2022/11/03 11:35:26;;;;;;;7.22;1.73;;;;;;;14.14;90.66;100297.00;5185178;28;20215;-76
2022/11/03 11:38:36;;;;;;;11.13;1.73;;;;;;;14.10;90.25;100289.34;5201946;28;20073;-76
2022/11/03 11:41:06;;;;;;;6.95;1.83;;;;;;;14.13;91.24;100291.81;5204507;28;20028;-76
2022/11/03 11:43:36;;;;;;;6.00;1.67;;;;;;;14.18;91.10;100281.91;5202656;28;20025;-76
2022/11/03 11:46:41;;;;;;;7.47;1.80;;;;;;;14.19;89.68;100270.47;5205112;28;20029;-76
2022/11/03 11:49:11;;;;;;;4.65;1.67;;;;;;;14.18;90.17;100263.50;5159795;28;20101;-76
2022/11/03 11:51:41;;;;;;;6.00;1.50;;;;;;;14.29;91.23;100261.97;5211403;28;20029;-76
2022/11/03 11:54:18;;;;;;;9.75;1.80;;;;;;;14.18;90.08;100255.63;5206214;28;20034;-75
2022/11/03 11:56:49;;;;;;;7.72;1.75;;;;;;;14.14;89.51;100246.19;5199221;28;20021;-77
2022/11/03 11:59:23;;;;;;;9.43;1.52;;;;;;;14.02;90.83;100238.97;5201772;28;20029;-76
2022/11/03 12:01:55;;;;;;;10.25;2.20;;;;;;;14.07;90.47;100234.34;5204697;28;20040;-76
2022/11/03 12:04:29;;;;;;;7.60;1.70;;;;;;;13.94;90.21;100228.06;5208269;28;20051;-76
2022/11/03 12:07:00;;;;;;;11.30;2.15;;;;;;;13.96;90.93;100231.44;5206739;28;20057;-76
2022/11/03 12:09:30;;;;;;;9.93;1.90;;;;;;;14.01;90.34;100217.13;5209761;28;20028;-76
2022/11/03 12:12:02;;;;;;;6.75;1.63;;;;;;;13.99;90.76;100216.38;5208102;28;20041;-77
2022/11/03 12:14:35;;;;;;;12.55;1.98;;;;;;;13.90;92.56;100205.50;5210859;28;20043;-76
2022/11/03 12:17:17;;;;;;;7.25;1.40;;;;;;;14.03;90.73;100206.50;5209265;28;20037;-74
2022/11/03 12:19:52;;;;;;;7.63;1.90;;;;;;;14.10;89.90;100192.94;5208940;28;20496;-75
2022/11/03 12:22:23;;;;;;;4.50;1.60;;;;;;;14.13;89.86;100184.91;5212251;28;20397;-77